Time;durP1;ratioP1;P1;durP2;ratioP2;P2;SDS_P1;SDS_P2;PMS_P1;PMS_P2;Temp;Humidity;BMP_temperature;BMP_pressure;BME280_temperature;BME280_humidity;BME280_pressure;Samples;Min_cycle;Max_cycle;Signal;HPM_P1;HPM_P2
2022/07/20 00:00:32;;;;;;;5.25;3.80;;;30.70;30.70;31.90;100565.00;;;;5090546;28;20173;-43
2022/07/20 00:03:05;;;;;;;6.15;3.80;;;30.70;30.70;31.90;100564.00;;;;5091066;28;20248;-42
2022/07/20 00:05:31;;;;;;;5.88;3.67;;;30.70;30.70;31.90;100550.00;;;;5090967;28;20157;-43
2022/07/20 00:07:56;;;;;;;3.90;3.50;;;30.70;30.60;31.90;100562.00;;;;5092168;28;20195;-43
2022/07/20 00:13:06;;;;;;;6.22;3.42;;;30.60;31.00;31.80;100554.00;;;;5091255;28;20589;-42
2022/07/20 00:15:32;;;;;;;4.28;3.40;;;30.60;30.90;31.80;100554.00;;;;5090055;28;20697;-43
2022/07/20 00:17:58;;;;;;;5.68;3.47;;;30.50;30.90;31.80;100556.00;;;;5090371;28;20268;-43
2022/07/20 00:20:24;;;;;;;4.60;3.70;;;30.50;31.00;31.80;100561.00;;;;5090286;28;20568;-43
2022/07/20 00:22:49;;;;;;;3.80;3.40;;;30.50;31.00;31.80;100556.00;;;;5090262;28;20165;-43
2022/07/20 00:25:15;;;;;;;4.40;3.80;;;30.50;31.00;31.70;100553.00;;;;5090289;28;20240;-44
2022/07/20 00:27:41;;;;;;;4.45;3.53;;;30.50;30.90;31.70;100543.00;;;;5089739;28;20189;-44
2022/07/20 00:30:07;;;;;;;7.03;3.67;;;30.50;31.20;31.70;100550.00;;;;5089750;28;20168;-43
2022/07/20 00:32:39;;;;;;;6.90;3.60;;;30.50;31.20;31.70;100548.00;;;;5092292;28;20169;-43
2022/07/20 00:35:07;;;;;;;4.35;3.50;;;30.50;31.20;31.70;100552.00;;;;5093404;28;20196;-44
2022/07/20 00:37:33;;;;;;;3.92;3.50;;;30.50;31.40;31.60;100540.00;;;;5089895;28;20265;-43
2022/07/20 00:39:58;;;;;;;4.90;3.78;;;30.40;31.20;31.60;100545.00;;;;5089730;28;20173;-42
2022/07/20 00:42:24;;;;;;;5.22;3.30;;;30.40;31.20;31.40;100550.00;;;;5089651;28;20162;-43
2022/07/20 00:44:50;;;;;;;4.90;3.47;;;30.40;31.30;31.60;100549.00;;;;5089808;28;20169;-43
2022/07/20 00:47:16;;;;;;;5.68;3.80;;;30.40;31.30;31.60;100545.00;;;;5089842;28;20175;-44
2022/07/20 00:49:41;;;;;;;3.70;3.40;;;30.40;31.30;31.50;100544.00;;;;5089850;28;20209;-43
2022/07/20 00:52:07;;;;;;;4.05;3.40;;;30.40;31.40;31.50;100537.00;;;;5089950;28;20208;-43
2022/07/20 00:54:33;;;;;;;5.43;3.22;;;30.30;31.30;31.50;100538.00;;;;5088657;28;20177;-43
2022/07/20 00:56:59;;;;;;;4.05;3.53;;;30.30;31.40;31.50;100531.00;;;;5089689;28;20203;-43
2022/07/20 00:59:25;;;;;;;5.70;3.72;;;30.30;31.40;31.40;100520.00;;;;5090566;28;20185;-42
2022/07/20 01:01:51;;;;;;;3.70;3.40;;;30.30;31.40;31.40;100530.00;;;;5089317;28;20167;-43
2022/07/20 01:04:16;;;;;;;3.90;3.60;;;30.30;31.40;31.40;100525.00;;;;5089616;28;20169;-43
2022/07/20 01:06:43;;;;;;;4.10;3.50;;;30.30;31.60;31.40;100521.00;;;;5089351;28;20177;-43
2022/07/20 01:09:08;;;;;;;4.13;3.65;;;30.30;31.50;31.20;100519.00;;;;5087683;28;20224;-43
2022/07/20 01:11:34;;;;;;;6.32;3.70;;;30.30;32.30;31.40;100514.00;;;;5089089;28;20205;-43
2022/07/20 01:14:06;;;;;;;5.35;3.70;;;30.30;31.50;31.40;100518.00;;;;5089222;28;20173;-43
2022/07/20 01:16:33;;;;;;;5.78;3.70;;;30.30;31.50;31.30;100515.00;;;;5089400;28;20277;-43
2022/07/20 01:18:59;;;;;;;5.47;3.95;;;30.20;31.40;31.30;100512.00;;;;5089142;28;20192;-43
2022/07/20 01:21:25;;;;;;;5.03;3.67;;;30.20;31.50;31.30;100515.00;;;;5088814;28;20165;-43
2022/07/20 01:23:51;;;;;;;4.47;3.88;;;30.20;31.70;31.30;100518.00;;;;5088705;28;20176;-43
2022/07/20 01:26:17;;;;;;;6.88;3.70;;;30.20;31.50;31.30;100515.00;;;;5088727;28;20189;-43
2022/07/20 01:28:43;;;;;;;3.90;3.60;;;30.10;31.60;31.30;100521.00;;;;5089072;28;20193;-43
2022/07/20 01:31:09;;;;;;;3.97;3.25;;;30.20;31.70;31.20;100523.00;;;;5088505;28;20165;-43
2022/07/20 01:33:35;;;;;;;5.20;4.10;;;30.10;31.70;31.20;100523.00;;;;5089045;28;20200;-43
2022/07/20 01:36:01;;;;;;;4.18;3.75;;;30.10;31.70;31.20;100521.00;;;;5088752;28;20207;-43
2022/07/20 01:38:26;;;;;;;5.10;3.90;;;30.10;31.70;31.20;100524.00;;;;5088373;28;20605;-43
2022/07/20 01:40:52;;;;;;;3.90;3.50;;;30.10;31.80;31.20;100526.00;;;;5088520;28;20161;-43
2022/07/20 01:43:18;;;;;;;4.32;3.40;;;30.10;31.90;31.20;100524.00;;;;5088668;28;20165;-43
2022/07/20 01:45:44;;;;;;;4.43;3.30;;;30.00;31.80;31.20;100532.00;;;;5088902;28;20168;-43
2022/07/20 01:48:09;;;;;;;4.72;3.63;;;30.10;31.80;31.10;100529.00;;;;5088668;28;20193;-43
2022/07/20 01:50:36;;;;;;;4.00;3.47;;;30.00;31.60;31.10;100524.00;;;;5087023;28;20177;-43
2022/07/20 01:53:02;;;;;;;3.90;3.60;;;30.00;31.80;31.10;100516.00;;;;5087530;28;20177;-43
2022/07/20 01:55:28;;;;;;;5.93;4.05;;;30.00;31.70;31.10;100520.00;;;;5088753;28;20200;-43
2022/07/20 01:57:54;;;;;;;4.97;3.50;;;30.00;31.70;31.10;100523.00;;;;5088442;28;20260;-43
2022/07/20 02:00:20;;;;;;;5.32;3.80;;;30.00;31.70;31.10;100521.00;;;;5087885;28;20240;-43
2022/07/20 02:02:45;;;;;;;4.68;3.60;;;30.00;31.90;31.10;100525.00;;;;5089097;28;20593;-43
2022/07/20 02:05:11;;;;;;;3.83;3.40;;;30.00;31.80;31.00;100517.00;;;;5088826;28;20172;-43
2022/07/20 02:07:37;;;;;;;4.63;3.50;;;30.00;31.80;31.00;100534.00;;;;5088560;28;20176;-43
2022/07/20 02:10:05;;;;;;;7.93;3.60;;;30.00;31.80;31.00;100533.00;;;;5088823;28;20538;-44
2022/07/20 02:12:31;;;;;;;4.88;3.65;;;30.00;32.00;31.00;100526.00;;;;5088163;28;20238;-43
2022/07/20 02:14:57;;;;;;;3.92;3.50;;;30.00;31.90;31.00;100526.00;;;;5088625;28;20701;-43
2022/07/20 02:17:23;;;;;;;5.47;3.70;;;30.00;32.00;31.00;100534.00;;;;5088588;28;20661;-43
2022/07/20 02:19:48;;;;;;;3.75;3.40;;;30.00;31.90;30.90;100524.00;;;;5088958;28;20161;-43
2022/07/20 02:22:14;;;;;;;3.97;3.58;;;30.00;31.90;30.90;100521.00;;;;5088390;28;20184;-43
2022/07/20 02:24:40;;;;;;;5.13;3.95;;;29.90;31.90;30.90;100536.00;;;;5088813;28;20184;-43
2022/07/20 02:27:05;;;;;;;4.55;3.60;;;29.90;31.90;30.90;100521.00;;;;5088743;28;20169;-43
2022/07/20 02:29:31;;;;;;;6.72;3.65;;;29.90;31.90;30.90;100518.00;;;;5088124;28;20185;-43
2022/07/20 02:31:57;;;;;;;5.28;3.40;;;30.00;31.90;30.90;100524.00;;;;5088590;28;20173;-43
2022/07/20 02:34:23;;;;;;;5.57;3.88;;;29.90;32.00;30.90;100527.00;;;;5088335;28;20222;-42
2022/07/20 02:36:48;;;;;;;3.78;3.38;;;29.90;31.90;30.80;100530.00;;;;5088294;28;20196;-43
2022/07/20 02:39:14;;;;;;;4.40;3.58;;;29.90;32.00;30.80;100540.00;;;;5088186;28;20193;-43
2022/07/20 02:41:40;;;;;;;5.85;3.40;;;29.90;32.20;30.80;100545.00;;;;5088750;28;20169;-43
2022/07/20 02:44:05;;;;;;;4.25;3.70;;;29.80;32.00;30.80;100531.00;;;;5088859;28;20169;-43
2022/07/20 02:46:31;;;;;;;7.28;3.53;;;29.80;32.00;30.80;100528.00;;;;5088554;28;20211;-43
2022/07/20 02:48:57;;;;;;;4.30;3.60;;;29.80;32.00;30.80;100534.00;;;;5087916;28;20243;-43
2022/07/20 02:51:23;;;;;;;5.07;3.53;;;29.80;32.10;30.80;100527.00;;;;5088498;28;20570;-43
2022/07/20 02:53:48;;;;;;;4.72;3.67;;;29.80;32.10;30.80;100534.00;;;;5088238;28;20195;-44
2022/07/20 02:56:14;;;;;;;5.57;3.78;;;29.80;32.10;30.70;100528.00;;;;5088362;28;20197;-44
2022/07/20 02:58:40;;;;;;;5.15;3.60;;;29.70;32.10;30.70;100520.00;;;;5088261;28;20185;-42
2022/07/20 03:01:05;;;;;;;4.90;3.80;;;29.80;32.10;30.70;100518.00;;;;5092225;28;20177;-43
2022/07/20 03:03:31;;;;;;;4.05;3.55;;;29.80;32.10;30.70;100517.00;;;;5095189;28;20183;-43
2022/07/20 03:05:58;;;;;;;4.50;3.60;;;29.80;32.00;30.70;100516.00;;;;5087592;28;20253;-43
2022/07/20 03:08:23;;;;;;;6.95;3.63;;;29.70;32.00;30.70;100503.00;;;;5088880;28;20197;-43
2022/07/20 03:10:49;;;;;;;6.03;3.50;;;29.70;32.00;30.70;100502.00;;;;5088128;28;20165;-43
2022/07/20 03:13:15;;;;;;;4.72;3.78;;;29.70;32.20;30.60;100495.00;;;;5087127;28;20177;-43
2022/07/20 03:15:41;;;;;;;4.03;3.63;;;29.80;32.20;30.60;100501.00;;;;5088341;28;20196;-43
2022/07/20 03:18:06;;;;;;;4.03;3.65;;;29.70;32.20;30.60;100494.00;;;;5087780;28;20185;-44
2022/07/20 03:20:33;;;;;;;5.88;4.05;;;29.70;32.30;30.60;100500.00;;;;5088577;28;20189;-41
2022/07/20 03:22:58;;;;;;;5.80;3.70;;;29.70;32.30;30.60;100489.00;;;;5089858;28;20169;-43
2022/07/20 03:25:24;;;;;;;5.00;3.60;;;29.70;32.90;30.60;100514.00;;;;5092389;28;20711;-42
2022/07/20 03:27:54;;;;;;;6.95;3.65;;;29.70;32.30;30.60;100512.00;;;;5091911;28;20211;-43
2022/07/20 03:30:20;;;;;;;5.57;3.90;;;29.70;32.50;30.60;100521.00;;;;5091149;28;20169;-42
2022/07/20 03:32:46;;;;;;;6.63;3.78;;;29.70;32.40;30.40;100526.00;;;;5092687;28;20169;-42
2022/07/20 03:35:12;;;;;;;4.90;3.40;;;29.70;32.50;30.60;100528.00;;;;5091930;28;20705;-43
2022/07/20 03:37:37;;;;;;;5.85;3.75;;;29.70;32.80;30.60;100530.00;;;;5091508;28;20529;-43
2022/07/20 03:40:04;;;;;;;4.35;3.53;;;29.70;32.70;30.60;100531.00;;;;5092141;28;20173;-43
2022/07/20 03:42:31;;;;;;;5.47;3.70;;;29.70;32.60;30.50;100539.00;;;;5091627;28;20154;-43
2022/07/20 03:44:57;;;;;;;4.00;3.60;;;29.60;32.70;30.50;100536.00;;;;5092565;28;20784;-43
2022/07/20 03:47:23;;;;;;;4.45;3.50;;;29.60;32.70;30.50;100558.00;;;;5091098;28;20188;-43
2022/07/20 03:49:50;;;;;;;4.28;3.65;;;29.60;32.70;30.50;100607.00;;;;5091884;28;20640;-42
2022/07/20 03:52:17;;;;;;;4.38;3.53;;;29.60;32.80;30.50;100607.00;;;;5081204;28;20181;-43
2022/07/20 03:54:43;;;;;;;5.70;3.97;;;29.50;32.70;30.50;100613.00;;;;5073149;28;20638;-43
2022/07/20 03:57:09;;;;;;;4.47;3.58;;;29.50;33.00;30.50;100628.00;;;;5071142;28;20235;-42
2022/07/20 03:59:35;;;;;;;4.78;3.78;;;29.50;33.10;30.50;100623.00;;;;5070984;28;20193;-42
2022/07/20 04:02:01;;;;;;;4.95;3.90;;;29.40;33.30;30.50;100619.00;;;;5070677;28;20387;-41
2022/07/20 04:04:27;;;;;;;6.60;4.10;;;29.40;33.40;30.40;100617.00;;;;5071564;28;20389;-43
2022/07/20 04:06:54;;;;;;;5.35;4.07;;;29.40;33.70;30.40;100631.00;;;;5071442;28;20542;-43
2022/07/20 04:09:43;;;;;;;5.03;3.80;;;29.40;33.90;30.20;100639.00;;;;5070946;28;20189;-42
2022/07/20 04:12:07;;;;;;;4.55;3.65;;;29.40;34.00;30.40;100633.00;;;;5071266;28;20188;-43
2022/07/20 04:14:33;;;;;;;4.10;3.40;;;29.50;34.20;30.50;100640.00;;;;5072604;28;20173;-43
2022/07/20 04:16:58;;;;;;;5.43;4.22;;;29.50;34.30;30.50;100643.00;;;;5070835;28;20276;-43
2022/07/20 04:19:24;;;;;;;6.35;4.10;;;29.50;34.30;30.50;100648.00;;;;5069597;28;20260;-44
2022/07/20 04:21:50;;;;;;;4.43;3.70;;;29.50;34.30;30.50;100657.00;;;;5070273;28;20162;-43
2022/07/20 04:24:16;;;;;;;4.53;3.80;;;29.50;34.60;30.50;100665.00;;;;5069613;28;20194;-41
2022/07/20 04:26:41;;;;;;;4.32;3.92;;;29.40;34.80;30.50;100660.00;;;;5070219;28;20251;-44
2022/07/20 04:29:07;;;;;;;6.20;4.07;;;29.40;35.10;30.50;100658.00;;;;5068777;28;20666;-44
2022/07/20 04:31:33;;;;;;;4.70;3.95;;;29.40;35.50;30.20;100658.00;;;;5068917;28;20226;-43
2022/07/20 04:33:58;;;;;;;4.22;3.83;;;29.40;35.50;30.40;100670.00;;;;5068395;28;20174;-43
2022/07/20 04:36:24;;;;;;;4.45;3.80;;;29.40;35.70;30.40;100674.00;;;;5068924;28;20591;-43
2022/07/20 04:38:50;;;;;;;7.40;4.00;;;29.40;35.90;30.40;100665.00;;;;5068727;28;20658;-42
2022/07/20 04:41:16;;;;;;;12.23;4.50;;;29.40;36.10;30.40;100670.00;;;;5068821;28;20184;-42
2022/07/20 04:43:42;;;;;;;9.93;4.18;;;29.40;36.30;30.40;100669.00;;;;5069181;28;20162;-42
2022/07/20 04:46:07;;;;;;;5.65;4.18;;;29.40;36.20;30.40;100670.00;;;;5069264;28;20170;-42
2022/07/20 04:48:33;;;;;;;6.78;4.30;;;29.40;36.10;30.30;100665.00;;;;5068792;28;20657;-42
2022/07/20 04:50:59;;;;;;;5.50;4.28;;;29.30;35.90;30.30;100670.00;;;;5068762;28;20696;-42
2022/07/20 04:53:24;;;;;;;4.60;4.20;;;29.20;35.80;30.30;100673.00;;;;5069192;28;20648;-42
2022/07/20 04:55:50;;;;;;;5.72;3.90;;;29.20;35.60;30.20;100681.00;;;;5068528;28;20200;-42
2022/07/20 04:58:16;;;;;;;4.68;4.10;;;29.30;35.70;30.20;100696.00;;;;5068696;28;20201;-42
2022/07/20 05:00:42;;;;;;;4.60;3.97;;;29.30;35.70;30.20;100701.00;;;;5068766;28;20173;-42
2022/07/20 05:03:07;;;;;;;5.38;3.92;;;29.30;35.50;30.20;100712.00;;;;5068816;28;20712;-43
2022/07/20 05:05:33;;;;;;;5.72;4.40;;;29.20;35.70;30.20;100720.00;;;;5068764;28;20870;-43
2022/07/20 05:07:59;;;;;;;5.45;4.07;;;29.30;36.00;30.20;100742.00;;;;5068506;28;20250;-43
2022/07/20 05:10:25;;;;;;;4.63;4.22;;;29.20;36.50;30.20;100751.00;;;;5068563;28;20196;-42
2022/07/20 05:12:50;;;;;;;7.20;4.35;;;29.10;36.80;30.10;100755.00;;;;5068789;28;20841;-42
2022/07/20 05:15:16;;;;;;;5.25;4.00;;;29.10;37.10;30.10;100764.00;;;;5069281;28;20197;-42
2022/07/20 05:17:42;;;;;;;7.80;4.70;;;29.10;37.30;30.10;100761.00;;;;5067738;28;20186;-42
2022/07/20 05:20:08;;;;;;;6.72;4.03;;;29.00;36.80;30.00;100768.00;;;;5067610;28;20703;-42
2022/07/20 05:22:34;;;;;;;5.70;4.13;;;29.00;37.00;30.00;100770.00;;;;5068155;28;20242;-42
2022/07/20 05:25:00;;;;;;;7.85;4.30;;;29.00;37.20;30.00;100773.00;;;;5067605;28;20270;-42
2022/07/20 05:27:25;;;;;;;7.18;4.57;;;29.00;37.20;30.00;100766.00;;;;5067288;28;20200;-43
2022/07/20 05:29:51;;;;;;;8.43;5.13;;;29.00;37.30;30.00;100772.00;;;;5068384;28;20196;-42
2022/07/20 05:32:17;;;;;;;5.80;5.20;;;29.10;37.50;30.00;100779.00;;;;5067305;28;20578;-42
2022/07/20 05:34:42;;;;;;;6.90;5.55;;;29.00;37.60;29.90;100785.00;;;;5067004;28;20174;-42
2022/07/20 05:37:08;;;;;;;8.43;6.82;;;28.90;38.00;29.90;100777.00;;;;5067765;28;20190;-43
2022/07/20 05:39:34;;;;;;;8.63;7.68;;;28.90;38.60;29.90;100786.00;;;;5066774;28;20342;-43
2022/07/20 05:42:00;;;;;;;10.55;8.20;;;28.80;38.50;29.90;100777.00;;;;5068841;28;20177;-42
2022/07/20 05:44:25;;;;;;;13.45;8.85;;;28.90;39.20;29.90;100787.00;;;;5069684;28;20180;-43
2022/07/20 05:46:51;;;;;;;10.38;8.40;;;28.90;39.40;29.90;100790.00;;;;5067993;28;20196;-43
2022/07/20 05:49:17;;;;;;;10.20;8.75;;;28.90;39.50;29.90;100797.00;;;;5067567;28;20224;-42
2022/07/20 05:51:43;;;;;;;9.52;8.50;;;29.00;39.70;29.90;100788.00;;;;5067732;28;20708;-43
2022/07/20 05:54:08;;;;;;;11.60;9.43;;;29.00;39.80;29.90;100797.00;;;;5067154;28;20787;-42
2022/07/20 05:56:34;;;;;;;12.15;9.68;;;28.90;40.10;29.90;100805.00;;;;5067264;28;20212;-43
2022/07/20 05:59:00;;;;;;;13.45;11.20;;;28.90;40.40;29.90;100800.00;;;;5067357;28;20192;-42
2022/07/20 06:01:26;;;;;;;14.05;10.25;;;28.90;40.90;29.90;100796.00;;;;5067239;28;20173;-43
2022/07/20 06:03:51;;;;;;;13.27;10.13;;;28.90;40.90;29.90;100806.00;;;;5067859;28;20169;-42
2022/07/20 06:06:17;;;;;;;11.98;10.73;;;29.00;41.00;29.90;100799.00;;;;5067395;28;20166;-43
2022/07/20 06:08:43;;;;;;;13.63;11.02;;;28.90;41.40;29.80;100798.00;;;;5067152;28;20318;-43
2022/07/20 06:11:09;;;;;;;13.15;11.85;;;28.90;41.80;29.80;100798.00;;;;5067157;28;20180;-43
2022/07/20 06:13:34;;;;;;;12.68;11.52;;;28.90;42.20;29.80;100773.00;;;;5068061;28;20249;-42
2022/07/20 06:16:00;;;;;;;18.38;12.20;;;28.80;42.10;29.80;100803.00;;;;5066441;28;20277;-41
2022/07/20 06:18:26;;;;;;;13.57;11.85;;;28.80;42.30;29.80;100797.00;;;;5067134;28;20220;-43
2022/07/20 06:20:52;;;;;;;12.50;11.30;;;28.80;42.30;29.80;100788.00;;;;5067116;28;20892;-43
2022/07/20 06:23:18;;;;;;;13.02;11.80;;;28.90;42.20;29.80;100800.00;;;;5049649;28;20310;-42
2022/07/20 06:25:44;;;;;;;13.48;11.10;;;29.00;41.90;29.80;100803.00;;;;5067650;28;20268;-42
2022/07/20 06:28:10;;;;;;;13.40;12.15;;;28.90;42.40;29.80;100810.00;;;;5066877;28;20197;-42
2022/07/20 06:30:36;;;;;;;14.30;12.98;;;28.90;42.60;29.80;100815.00;;;;5067534;28;20316;-42
2022/07/20 06:33:01;;;;;;;13.88;12.48;;;28.90;42.90;29.80;100817.00;;;;5067406;28;20191;-43
2022/07/20 06:35:27;;;;;;;14.50;13.10;;;28.90;43.10;29.80;100823.00;;;;5067016;28;20221;-43
2022/07/20 06:37:53;;;;;;;16.00;12.77;;;28.90;43.30;29.80;100771.00;;;;5066161;28;20189;-42
2022/07/20 06:40:19;;;;;;;16.52;13.30;;;28.90;43.50;29.80;100830.00;;;;5066797;28;20240;-42
2022/07/20 06:42:45;;;;;;;16.55;13.90;;;28.80;43.80;29.80;100837.00;;;;5066930;28;20269;-44
2022/07/20 06:45:11;;;;;;;15.30;13.80;;;28.80;44.10;29.80;100838.00;;;;5066682;28;20166;-43
2022/07/20 06:47:37;;;;;;;14.98;13.48;;;28.80;44.40;29.70;100845.00;;;;5066925;28;20814;-43
2022/07/20 06:50:04;;;;;;;15.93;14.27;;;28.80;44.60;29.70;100855.00;;;;5068719;28;20162;-42
2022/07/20 06:52:33;;;;;;;17.35;14.38;;;28.80;44.70;29.70;100852.00;;;;5070985;28;20571;-43
2022/07/20 06:54:59;;;;;;;16.08;14.48;;;28.80;44.70;29.70;100845.00;;;;5070322;28;20862;-42
2022/07/20 06:57:24;;;;;;;16.45;14.30;;;28.80;45.00;29.70;100862.00;;;;5069127;28;20166;-43
2022/07/20 06:59:50;;;;;;;16.52;14.85;;;28.70;45.00;29.70;100861.00;;;;5070641;28;20700;-43
2022/07/20 07:02:16;;;;;;;17.65;15.85;;;28.70;45.00;29.70;100876.00;;;;5021664;28;20173;-43
2022/07/20 07:04:42;;;;;;;16.35;14.73;;;28.80;46.10;29.70;100874.00;;;;5091254;28;20173;-43
2022/07/20 07:07:08;;;;;;;16.50;14.85;;;28.70;45.40;29.70;100871.00;;;;5090406;28;20165;-43
2022/07/20 07:09:34;;;;;;;16.52;14.90;;;28.70;45.60;29.70;100872.00;;;;5091463;28;20203;-43
2022/07/20 07:12:00;;;;;;;18.70;15.45;;;28.70;45.70;29.70;100880.00;;;;5092509;28;20183;-43
2022/07/20 07:14:26;;;;;;;16.05;14.65;;;28.70;45.60;29.60;100891.00;;;;5093895;28;20267;-41
2022/07/20 07:16:53;;;;;;;17.00;15.25;;;28.70;45.60;29.60;100896.00;;;;5091660;28;20301;-42
2022/07/20 07:19:19;;;;;;;16.52;14.85;;;28.70;45.80;29.60;100902.00;;;;5090248;28;20271;-43
2022/07/20 07:21:45;;;;;;;17.80;16.10;;;28.70;45.80;29.60;100918.00;;;;5090940;28;20208;-42
2022/07/20 07:24:10;;;;;;;18.45;16.00;;;28.70;45.70;29.60;100916.00;;;;5090934;28;20518;-41
2022/07/20 07:26:36;;;;;;;18.23;15.07;;;28.70;45.80;29.60;100921.00;;;;5091152;28;20192;-43
2022/07/20 07:29:02;;;;;;;16.02;14.52;;;28.70;45.90;29.60;100937.00;;;;5090759;28;20276;-45
2022/07/20 07:31:28;;;;;;;17.50;15.63;;;28.70;46.10;29.60;100875.00;;;;5094087;28;20257;-43
2022/07/20 07:33:53;;;;;;;16.67;14.90;;;28.70;46.20;29.60;100934.00;;;;5094769;28;20185;-41
2022/07/20 07:36:19;;;;;;;17.88;14.98;;;28.70;46.30;29.60;100937.00;;;;5093493;28;20188;-43
2022/07/20 07:38:45;;;;;;;17.70;15.25;;;28.70;46.20;29.60;100935.00;;;;5090671;28;20677;-42
2022/07/20 07:41:11;;;;;;;17.17;15.48;;;28.70;46.20;29.60;100949.00;;;;5090378;28;20187;-43
2022/07/20 07:43:37;;;;;;;16.90;15.38;;;28.70;46.70;29.60;100957.00;;;;5090071;28;20173;-42
2022/07/20 07:46:02;;;;;;;17.17;15.52;;;28.70;46.30;29.60;100961.00;;;;5090291;28;20169;-43
2022/07/20 07:48:28;;;;;;;17.27;15.57;;;28.70;46.50;29.60;100974.00;;;;5090010;28;20546;-43
2022/07/20 07:50:54;;;;;;;17.70;15.90;;;28.70;46.50;29.60;100975.00;;;;5090826;28;20660;-42
2022/07/20 07:53:20;;;;;;;16.90;15.38;;;28.70;46.50;29.60;100980.00;;;;5092124;28;20897;-43
2022/07/20 07:55:46;;;;;;;18.10;16.02;;;28.70;46.70;29.40;100973.00;;;;5090757;28;20294;-43
2022/07/20 07:58:14;;;;;;;18.25;16.60;;;28.70;46.80;29.60;100981.00;;;;5090733;28;20223;-43
2022/07/20 08:00:40;;;;;;;17.65;16.05;;;28.70;46.80;29.50;100976.00;;;;5091443;28;20161;-42
2022/07/20 08:03:06;;;;;;;17.63;16.02;;;28.70;46.70;29.50;100987.00;;;;5089510;28;20350;-42
2022/07/20 08:05:32;;;;;;;18.23;16.50;;;28.70;46.60;29.50;100989.00;;;;5090001;28;20177;-44
2022/07/20 08:07:58;;;;;;;17.13;15.63;;;28.70;46.60;29.60;100990.00;;;;5089548;28;20321;-42
2022/07/20 08:10:23;;;;;;;17.58;16.05;;;28.80;46.80;29.60;100995.00;;;;5090285;28;20212;-42
2022/07/20 08:12:49;;;;;;;18.45;16.55;;;28.80;46.80;29.60;100986.00;;;;5020379;28;20208;-42
2022/07/20 08:15:15;;;;;;;18.02;16.17;;;28.80;46.70;29.60;101012.00;;;;5087055;28;20255;-42
2022/07/20 08:17:46;;;;;;;17.50;15.68;;;28.80;46.60;29.60;101013.00;;;;5102454;28;20803;-42
2022/07/20 08:20:13;;;;;;;17.48;15.75;;;28.90;46.20;29.60;101020.00;;;;5087748;28;20260;-41
2022/07/20 08:22:38;;;;;;;17.35;15.75;;;28.90;46.00;29.60;101030.00;;;;5087912;28;20173;-41
2022/07/20 08:25:05;;;;;;;17.33;15.52;;;29.00;45.80;29.70;101035.00;;;;5086391;28;20173;-42
2022/07/20 08:27:30;;;;;;;15.98;14.55;;;29.00;45.80;29.70;101024.00;;;;5087442;28;20181;-43
2022/07/20 08:29:58;;;;;;;16.70;15.00;;;29.00;45.60;29.70;101021.00;;;;5087676;28;20165;-43
2022/07/20 08:32:27;;;;;;;16.58;15.05;;;29.10;45.50;29.80;101013.00;;;;5087390;28;20172;-42
2022/07/20 08:34:53;;;;;;;17.95;15.57;;;29.10;45.40;29.80;101021.00;;;;5087602;28;20161;-43
2022/07/20 08:37:19;;;;;;;16.75;15.13;;;29.10;45.50;29.80;101029.00;;;;5087245;28;20581;-43
2022/07/20 08:39:44;;;;;;;16.50;14.88;;;29.10;46.40;29.80;101020.00;;;;5087248;28;20189;-42
2022/07/20 08:42:10;;;;;;;15.90;14.40;;;29.10;45.80;29.80;101008.00;;;;5087623;28;20204;-42
2022/07/20 08:44:39;;;;;;;16.15;14.55;;;29.10;46.00;29.90;100992.00;;;;5086034;28;20252;-42
2022/07/20 08:47:05;;;;;;;18.50;15.20;;;29.20;45.90;29.90;100987.00;;;;5087349;28;20176;-42
2022/07/20 08:49:31;;;;;;;16.35;14.73;;;29.20;46.60;29.90;100982.00;;;;5085425;28;20192;-41
2022/07/20 08:51:58;;;;;;;16.33;14.73;;;29.20;45.90;29.90;100973.00;;;;5087262;28;20229;-41
2022/07/20 08:54:25;;;;;;;15.10;13.73;;;29.20;46.20;30.00;100961.00;;;;5087322;28;20173;-42
2022/07/20 08:56:51;;;;;;;15.10;13.90;;;29.20;46.00;30.00;100965.00;;;;5086925;28;20189;-42
2022/07/20 08:59:16;;;;;;;15.18;13.70;;;29.30;46.10;30.00;100941.00;;;;5086953;28;20639;-41
2022/07/20 09:02:07;;;;;;;17.23;14.02;;;29.30;46.30;30.00;100939.00;;;;5085825;28;20165;-41
2022/07/20 09:04:33;;;;;;;15.68;14.05;;;29.30;46.40;30.00;100944.00;;;;5086913;28;20149;-41
2022/07/20 09:06:59;;;;;;;16.02;14.52;;;29.30;46.80;30.00;100945.00;;;;5052175;28;20176;-42
2022/07/20 09:09:25;;;;;;;14.25;12.93;;;29.30;47.30;30.00;100937.00;;;;5086469;28;20193;-41
2022/07/20 09:11:50;;;;;;;15.32;13.55;;;29.40;47.10;30.10;100926.00;;;;5037899;28;20177;-41
2022/07/20 09:14:36;;;;;;;15.00;13.50;;;29.40;47.00;30.10;100935.00;;;;5086468;28;20183;-43
2022/07/20 09:17:25;;;;;;;13.93;12.57;;;29.40;46.90;30.10;100931.00;;;;5086616;28;20208;-41
2022/07/20 09:20:07;;;;;;;14.10;13.00;;;29.40;46.60;30.10;100921.00;;;;5086455;28;20684;-42
2022/07/20 09:22:43;;;;;;;14.23;12.90;;;29.40;46.40;30.10;100913.00;;;;5098621;28;20167;-41
2022/07/20 09:25:15;;;;;;;14.07;12.80;;;29.40;46.30;30.20;100915.00;;;;5106736;28;20664;-43
2022/07/20 09:27:41;;;;;;;13.68;12.57;;;29.40;46.20;30.20;100904.00;;;;5107048;28;20172;-42
2022/07/20 09:30:15;;;;;;;13.75;12.45;;;29.40;46.20;30.20;100829.00;;;;5106102;28;20851;-41
2022/07/20 09:33:02;;;;;;;14.00;12.90;;;29.40;46.10;30.20;100900.00;;;;5107207;28;20174;-42
2022/07/20 09:35:34;;;;;;;13.57;12.38;;;29.40;46.00;30.20;100844.00;;;;5106837;28;20649;-43
2022/07/20 09:38:03;;;;;;;13.70;12.40;;;29.40;46.00;30.20;100898.00;;;;5106962;28;20429;-41
2022/07/20 09:40:39;;;;;;;13.40;12.30;;;29.50;46.00;30.20;100897.00;;;;5107106;28;20176;-43
2022/07/20 09:43:04;;;;;;;14.38;13.20;;;29.40;45.90;30.30;100909.00;;;;5105938;28;20199;-42
2022/07/20 09:45:31;;;;;;;13.63;12.30;;;29.50;46.00;30.20;100919.00;;;;5105949;28;20214;-42
2022/07/20 09:48:09;;;;;;;13.65;12.55;;;29.50;46.00;30.30;100916.00;;;;5107061;28;20191;-42
2022/07/20 09:50:41;;;;;;;13.20;12.13;;;29.50;46.00;30.30;100963.00;;;;5108052;28;20183;-41
2022/07/20 09:53:08;;;;;;;13.73;12.40;;;29.50;46.00;30.30;100965.00;;;;5106709;28;20255;-42
2022/07/20 09:55:34;;;;;;;13.88;12.57;;;29.60;46.00;30.40;100954.00;;;;5107176;28;20253;-42
2022/07/20 09:58:00;;;;;;;13.52;12.32;;;29.60;46.10;30.40;100971.00;;;;5106502;28;20768;-41
2022/07/20 10:00:26;;;;;;;13.13;11.95;;;29.60;46.00;30.40;100972.00;;;;5106462;28;20213;-42
2022/07/20 10:02:54;;;;;;;13.27;12.02;;;29.60;46.00;30.40;100983.00;;;;5088112;28;20559;-43
2022/07/20 10:05:21;;;;;;;14.15;12.32;;;29.60;46.00;30.40;100983.00;;;;5112463;28;20543;-42
2022/07/20 10:07:47;;;;;;;12.50;11.40;;;29.60;46.60;30.40;101005.00;;;;5124752;28;20184;-42
2022/07/20 10:10:13;;;;;;;12.00;11.00;;;29.60;46.00;30.40;101004.00;;;;5107745;28;20165;-42
2022/07/20 10:12:39;;;;;;;12.80;11.80;;;29.60;46.10;30.40;101004.00;;;;5106346;28;20260;-42
2022/07/20 10:15:14;;;;;;;12.45;11.35;;;29.60;46.20;30.50;101006.00;;;;5104686;28;20243;-43
2022/07/20 10:17:42;;;;;;;12.80;11.60;;;29.60;46.10;30.50;101007.00;;;;5088624;28;20175;-43
2022/07/20 10:20:34;;;;;;;12.15;11.13;;;29.70;46.20;30.50;101014.00;;;;5106360;28;20183;-42
2022/07/20 10:23:15;;;;;;;11.85;10.85;;;29.70;46.10;30.50;101004.00;;;;5104740;28;20156;-41
2022/07/20 10:25:45;;;;;;;11.93;11.02;;;29.70;46.00;30.50;101018.00;;;;5105882;28;20612;-42
2022/07/20 10:28:26;;;;;;;12.25;11.25;;;29.70;46.10;30.50;100971.00;;;;5106512;28;20566;-42
2022/07/20 10:30:57;;;;;;;12.32;11.10;;;29.70;46.10;30.50;100967.00;;;;5115944;28;20192;-42
2022/07/20 10:33:23;;;;;;;11.57;10.68;;;29.70;46.10;30.50;101024.00;;;;5117668;28;20156;-42
2022/07/20 10:35:50;;;;;;;12.15;11.05;;;29.70;46.10;30.60;101026.00;;;;5117342;28;20184;-42
2022/07/20 10:38:19;;;;;;;11.80;10.90;;;29.80;46.20;30.60;101025.00;;;;5109570;28;20180;-42
2022/07/20 10:44:22;;;;;;;11.75;10.75;;;29.80;46.10;30.60;101028.00;;;;5112700;28;20159;-41